sensor_id;sensor_type;location;lat;lon;timestamp;noise_LAeq;noise_LA_min;noise_LA_max;noise_LA01;noise_LA95
65079;Laerm;52655;52.218;5.964;2023-01-28T00:01:51;40.6;30.3;55.6;;
65079;Laerm;52655;52.218;5.964;2023-01-28T00:03:51;38.3;29.6;53.4;;
65079;Laerm;52655;52.218;5.964;2023-01-28T00:05:51;33.0;30.0;40.0;;
65079;Laerm;52655;52.218;5.964;2023-01-28T00:07:51;37.8;30.3;56.6;;
65079;Laerm;52655;52.218;5.964;2023-01-28T00:09:51;32.2;29.9;37.5;;
65079;Laerm;52655;52.218;5.964;2023-01-28T00:11:51;36.9;30.5;50.9;;
65079;Laerm;52655;52.218;5.964;2023-01-28T00:13:51;38.0;29.4;54.9;;
65079;Laerm;52655;52.218;5.964;2023-01-28T00:15:54;37.6;29.5;55.4;;
65079;Laerm;52655;52.218;5.964;2023-01-28T00:17:51;37.7;29.2;50.4;;
65079;Laerm;52655;52.218;5.964;2023-01-28T00:19:51;36.0;29.4;53.6;;
65079;Laerm;52655;52.218;5.964;2023-01-28T00:21:51;39.8;29.5;56.1;;
65079;Laerm;52655;52.218;5.964;2023-01-28T00:23:52;36.0;29.2;50.6;;
65079;Laerm;52655;52.218;5.964;2023-01-28T00:25:51;37.6;29.9;54.7;;
65079;Laerm;52655;52.218;5.964;2023-01-28T00:27:51;37.7;29.6;53.6;;
65079;Laerm;52655;52.218;5.964;2023-01-28T00:29:51;36.5;29.8;47.1;;
65079;Laerm;52655;52.218;5.964;2023-01-28T00:31:52;36.8;29.7;52.2;;
65079;Laerm;52655;52.218;5.964;2023-01-28T00:33:52;33.0;29.9;46.2;;
65079;Laerm;52655;52.218;5.964;2023-01-28T00:35:59;36.5;29.6;54.0;;
65079;Laerm;52655;52.218;5.964;2023-01-28T00:37:52;32.2;29.2;45.4;;
65079;Laerm;52655;52.218;5.964;2023-01-28T00:39:52;39.1;29.4;57.4;;
65079;Laerm;52655;52.218;5.964;2023-01-28T00:41:52;38.4;30.2;56.1;;
65079;Laerm;52655;52.218;5.964;2023-01-28T00:43:52;34.3;29.5;51.1;;
65079;Laerm;52655;52.218;5.964;2023-01-28T00:45:52;38.2;29.5;52.4;;
65079;Laerm;52655;52.218;5.964;2023-01-28T00:47:52;40.4;32.7;54.7;;
65079;Laerm;52655;52.218;5.964;2023-01-28T00:49:52;32.4;29.4;39.6;;
65079;Laerm;52655;52.218;5.964;2023-01-28T00:51:52;40.0;29.5;56.1;;
65079;Laerm;52655;52.218;5.964;2023-01-28T00:53:52;37.1;29.1;54.6;;
65079;Laerm;52655;52.218;5.964;2023-01-28T00:55:52;39.5;30.0;54.6;;
65079;Laerm;52655;52.218;5.964;2023-01-28T00:57:52;41.2;31.4;54.1;;
65079;Laerm;52655;52.218;5.964;2023-01-28T00:59:52;39.5;29.9;53.8;;
65079;Laerm;52655;52.218;5.964;2023-01-28T01:01:52;34.4;29.8;48.4;;
65079;Laerm;52655;52.218;5.964;2023-01-28T01:03:54;31.5;29.3;37.7;;
65079;Laerm;52655;52.218;5.964;2023-01-28T01:05:52;40.0;29.8;55.7;;
65079;Laerm;52655;52.218;5.964;2023-01-28T01:07:52;32.1;29.6;39.3;;
65079;Laerm;52655;52.218;5.964;2023-01-28T01:09:52;36.2;29.6;53.1;;
65079;Laerm;52655;52.218;5.964;2023-01-28T01:11:53;36.7;29.3;54.4;;
65079;Laerm;52655;52.218;5.964;2023-01-28T01:13:53;35.2;29.6;50.6;;
65079;Laerm;52655;52.218;5.964;2023-01-28T01:16:00;35.3;29.3;54.8;;
65079;Laerm;52655;52.218;5.964;2023-01-28T01:17:53;32.6;29.6;45.4;;
65079;Laerm;52655;52.218;5.964;2023-01-28T01:19:53;39.5;29.2;53.4;;
65079;Laerm;52655;52.218;5.964;2023-01-28T01:21:53;31.8;29.0;40.8;;
65079;Laerm;52655;52.218;5.964;2023-01-28T01:23:53;30.8;29.0;36.0;;
65079;Laerm;52655;52.218;5.964;2023-01-28T01:25:53;38.8;29.3;54.4;;
65079;Laerm;52655;52.218;5.964;2023-01-28T01:27:53;40.5;29.6;58.8;;
65079;Laerm;52655;52.218;5.964;2023-01-28T01:29:53;38.2;29.2;55.8;;
65079;Laerm;52655;52.218;5.964;2023-01-28T01:31:53;39.9;29.4;55.7;;
65079;Laerm;52655;52.218;5.964;2023-01-28T01:33:53;29.9;28.7;31.4;;
65079;Laerm;52655;52.218;5.964;2023-01-28T01:35:53;29.9;28.8;32.6;;
65079;Laerm;52655;52.218;5.964;2023-01-28T01:37:53;34.3;28.7;51.5;;
65079;Laerm;52655;52.218;5.964;2023-01-28T01:39:53;36.1;29.2;51.2;;
65079;Laerm;52655;52.218;5.964;2023-01-28T01:41:53;35.5;29.7;52.0;;
65079;Laerm;52655;52.218;5.964;2023-01-28T01:44:00;39.6;29.1;55.7;;
65079;Laerm;52655;52.218;5.964;2023-01-28T01:45:55;38.0;28.9;57.8;;
65079;Laerm;52655;52.218;5.964;2023-01-28T01:48:12;29.8;28.8;31.6;;
65079;Laerm;52655;52.218;5.964;2023-01-28T01:49:54;35.1;28.8;53.1;;
65079;Laerm;52655;52.218;5.964;2023-01-28T01:51:54;31.1;28.9;37.4;;
65079;Laerm;52655;52.218;5.964;2023-01-28T01:53:54;37.8;29.0;53.3;;
65079;Laerm;52655;52.218;5.964;2023-01-28T01:55:55;30.0;28.8;34.2;;
65079;Laerm;52655;52.218;5.964;2023-01-28T01:57:56;37.3;29.4;53.6;;
65079;Laerm;52655;52.218;5.964;2023-01-28T01:59:54;34.3;29.0;51.4;;
65079;Laerm;52655;52.218;5.964;2023-01-28T02:01:54;39.8;29.6;57.5;;
65079;Laerm;52655;52.218;5.964;2023-01-28T02:04:07;30.4;29.0;34.3;;
65079;Laerm;52655;52.218;5.964;2023-01-28T02:05:54;31.1;29.3;37.3;;
65079;Laerm;52655;52.218;5.964;2023-01-28T02:07:58;38.2;29.3;58.0;;
65079;Laerm;52655;52.218;5.964;2023-01-28T02:09:54;34.9;29.6;50.7;;
65079;Laerm;52655;52.218;5.964;2023-01-28T02:11:55;47.6;28.9;64.9;;
65079;Laerm;52655;52.218;5.964;2023-01-28T02:13:54;35.5;28.9;47.9;;
65079;Laerm;52655;52.218;5.964;2023-01-28T02:15:54;39.8;29.4;57.4;;
65079;Laerm;52655;52.218;5.964;2023-01-28T02:17:54;30.7;29.0;41.2;;
65079;Laerm;52655;52.218;5.964;2023-01-28T02:19:55;30.1;28.9;35.9;;
65079;Laerm;52655;52.218;5.964;2023-01-28T02:22:25;31.4;28.7;41.6;;
65079;Laerm;52655;52.218;5.964;2023-01-28T02:25:36;36.0;29.2;53.4;;
65079;Laerm;52655;52.218;5.964;2023-01-28T02:27:49;30.2;28.6;33.9;;
65079;Laerm;52655;52.218;5.964;2023-01-28T02:29:12;30.8;28.8;37.4;;
65079;Laerm;52655;52.218;5.964;2023-01-28T02:30:57;31.4;29.2;40.2;;
65079;Laerm;52655;52.218;5.964;2023-01-28T02:32:37;33.4;28.8;50.2;;
65079;Laerm;52655;52.218;5.964;2023-01-28T02:34:52;35.6;29.2;55.3;;
65079;Laerm;52655;52.218;5.964;2023-01-28T02:35:55;31.9;28.9;41.7;;
65079;Laerm;52655;52.218;5.964;2023-01-28T02:37:59;34.3;28.7;52.6;;
65079;Laerm;52655;52.218;5.964;2023-01-28T02:39:56;30.7;29.1;39.9;;
65079;Laerm;52655;52.218;5.964;2023-01-28T02:41:57;37.6;29.1;56.6;;
65079;Laerm;52655;52.218;5.964;2023-01-28T02:43:55;30.4;28.9;33.9;;
65079;Laerm;52655;52.218;5.964;2023-01-28T02:45:55;30.8;28.7;49.2;;
65079;Laerm;52655;52.218;5.964;2023-01-28T02:47:55;30.5;28.8;39.6;;
65079;Laerm;52655;52.218;5.964;2023-01-28T02:49:57;36.4;29.1;52.6;;
65079;Laerm;52655;52.218;5.964;2023-01-28T02:52:31;32.4;29.2;42.9;;
65079;Laerm;52655;52.218;5.964;2023-01-28T02:54:52;43.0;28.9;61.5;;
65079;Laerm;52655;52.218;5.964;2023-01-28T02:56:46;32.4;29.6;47.0;;
65079;Laerm;52655;52.218;5.964;2023-01-28T02:58:54;35.2;29.4;51.9;;
65079;Laerm;52655;52.218;5.964;2023-01-28T03:00:56;30.4;28.9;35.6;;
65079;Laerm;52655;52.218;5.964;2023-01-28T03:02:33;37.8;29.0;55.1;;
65079;Laerm;52655;52.218;5.964;2023-01-28T03:04:35;32.8;29.3;46.3;;
65079;Laerm;52655;52.218;5.964;2023-01-28T03:06:05;33.2;29.2;47.3;;
65079;Laerm;52655;52.218;5.964;2023-01-28T03:07:56;40.7;29.5;55.9;;
65079;Laerm;52655;52.218;5.964;2023-01-28T03:09:56;32.3;29.6;39.8;;
65079;Laerm;52655;52.218;5.964;2023-01-28T03:11:56;32.7;29.2;50.9;;
65079;Laerm;52655;52.218;5.964;2023-01-28T03:13:56;37.6;29.5;52.8;;
65079;Laerm;52655;52.218;5.964;2023-01-28T03:15:56;31.9;29.5;36.0;;
65079;Laerm;52655;52.218;5.964;2023-01-28T03:18:02;31.2;29.3;38.3;;
65079;Laerm;52655;52.218;5.964;2023-01-28T03:19:56;33.0;29.0;45.2;;
65079;Laerm;52655;52.218;5.964;2023-01-28T03:21:56;32.6;29.6;43.4;;
65079;Laerm;52655;52.218;5.964;2023-01-28T03:24:07;32.0;29.4;40.6;;
65079;Laerm;52655;52.218;5.964;2023-01-28T03:25:57;31.3;29.5;38.9;;
65079;Laerm;52655;52.218;5.964;2023-01-28T03:28:03;30.6;29.1;37.1;;
65079;Laerm;52655;52.218;5.964;2023-01-28T03:30:00;42.1;29.1;60.3;;
65079;Laerm;52655;52.218;5.964;2023-01-28T03:31:56;33.2;29.6;47.8;;
65079;Laerm;52655;52.218;5.964;2023-01-28T03:33:56;35.7;28.9;52.4;;
65079;Laerm;52655;52.218;5.964;2023-01-28T03:35:56;32.6;29.2;42.6;;
65079;Laerm;52655;52.218;5.964;2023-01-28T03:37:57;43.8;29.2;71.3;;
65079;Laerm;52655;52.218;5.964;2023-01-28T03:39:57;29.8;28.8;32.1;;
65079;Laerm;52655;52.218;5.964;2023-01-28T03:41:57;36.1;28.7;53.6;;
65079;Laerm;52655;52.218;5.964;2023-01-28T03:43:57;34.6;28.9;47.5;;
65079;Laerm;52655;52.218;5.964;2023-01-28T03:45:57;30.8;29.2;42.7;;
65079;Laerm;52655;52.218;5.964;2023-01-28T03:47:57;34.2;29.0;50.4;;
65079;Laerm;52655;52.218;5.964;2023-01-28T03:49:57;37.8;29.6;53.4;;
65079;Laerm;52655;52.218;5.964;2023-01-28T03:51:57;31.6;29.1;46.9;;
65079;Laerm;52655;52.218;5.964;2023-01-28T03:53:57;36.8;29.0;53.6;;
65079;Laerm;52655;52.218;5.964;2023-01-28T03:57:57;34.6;29.4;52.1;;
65079;Laerm;52655;52.218;5.964;2023-01-28T03:59:57;38.6;29.4;56.0;;
65079;Laerm;52655;52.218;5.964;2023-01-28T04:01:57;33.0;29.0;49.6;;
65079;Laerm;52655;52.218;5.964;2023-01-28T04:03:57;38.4;29.1;57.5;;
65079;Laerm;52655;52.218;5.964;2023-01-28T04:06:01;38.7;29.8;55.0;;
65079;Laerm;52655;52.218;5.964;2023-01-28T04:07:57;33.9;29.6;45.9;;
65079;Laerm;52655;52.218;5.964;2023-01-28T04:09:57;37.1;29.6;53.6;;
65079;Laerm;52655;52.218;5.964;2023-01-28T04:11:57;29.9;29.0;31.2;;
65079;Laerm;52655;52.218;5.964;2023-01-28T04:13:58;38.0;29.4;56.0;;
65079;Laerm;52655;52.218;5.964;2023-01-28T04:15:58;32.0;30.1;37.4;;
65079;Laerm;52655;52.218;5.964;2023-01-28T04:17:58;35.3;30.6;52.2;;
65079;Laerm;52655;52.218;5.964;2023-01-28T04:19:58;31.8;30.1;35.5;;
65079;Laerm;52655;52.218;5.964;2023-01-28T04:21:58;35.6;30.5;53.6;;
65079;Laerm;52655;52.218;5.964;2023-01-28T04:23:58;34.0;30.2;49.6;;
65079;Laerm;52655;52.218;5.964;2023-01-28T04:25:58;37.7;30.8;51.1;;
65079;Laerm;52655;52.218;5.964;2023-01-28T04:27:58;36.9;30.5;55.6;;
65079;Laerm;52655;52.218;5.964;2023-01-28T04:29:58;34.1;30.4;45.5;;
65079;Laerm;52655;52.218;5.964;2023-01-28T04:31:58;31.8;29.6;45.7;;
65079;Laerm;52655;52.218;5.964;2023-01-28T04:33:58;30.8;29.5;34.7;;
65079;Laerm;52655;52.218;5.964;2023-01-28T04:35:58;34.3;29.4;51.6;;
65079;Laerm;52655;52.218;5.964;2023-01-28T04:37:58;31.8;29.6;34.6;;
65079;Laerm;52655;52.218;5.964;2023-01-28T04:39:58;38.4;30.2;56.1;;
65079;Laerm;52655;52.218;5.964;2023-01-28T04:41:58;37.6;30.3;53.8;;
65079;Laerm;52655;52.218;5.964;2023-01-28T04:43:58;35.1;30.2;47.5;;
65079;Laerm;52655;52.218;5.964;2023-01-28T04:45:59;42.4;30.5;60.1;;
65079;Laerm;52655;52.218;5.964;2023-01-28T04:47:59;36.5;29.9;49.1;;
65079;Laerm;52655;52.218;5.964;2023-01-28T04:50:43;32.5;29.8;39.0;;
65079;Laerm;52655;52.218;5.964;2023-01-28T04:52:22;38.8;30.6;55.0;;
65079;Laerm;52655;52.218;5.964;2023-01-28T04:54:01;32.8;30.1;40.3;;
65079;Laerm;52655;52.218;5.964;2023-01-28T04:55:59;38.0;30.5;57.5;;
65079;Laerm;52655;52.218;5.964;2023-01-28T04:57:59;31.8;29.1;39.8;;
65079;Laerm;52655;52.218;5.964;2023-01-28T04:59:59;38.3;29.0;53.6;;
65079;Laerm;52655;52.218;5.964;2023-01-28T05:01:59;35.8;28.8;52.7;;
65079;Laerm;52655;52.218;5.964;2023-01-28T05:03:59;42.0;29.2;59.5;;
65079;Laerm;52655;52.218;5.964;2023-01-28T05:05:59;32.3;29.1;43.2;;
65079;Laerm;52655;52.218;5.964;2023-01-28T05:07:59;36.7;29.1;54.8;;
65079;Laerm;52655;52.218;5.964;2023-01-28T05:09:59;32.1;28.8;40.5;;
65079;Laerm;52655;52.218;5.964;2023-01-28T05:11:59;39.3;30.1;58.1;;
65079;Laerm;52655;52.218;5.964;2023-01-28T05:13:59;34.0;29.6;46.7;;
65079;Laerm;52655;52.218;5.964;2023-01-28T05:15:59;33.6;29.2;53.4;;
65079;Laerm;52655;52.218;5.964;2023-01-28T05:17:59;37.9;28.8;52.0;;
65079;Laerm;52655;52.218;5.964;2023-01-28T05:20:00;35.7;29.5;52.0;;
65079;Laerm;52655;52.218;5.964;2023-01-28T05:22:00;35.3;29.1;51.6;;
65079;Laerm;52655;52.218;5.964;2023-01-28T05:24:00;36.8;29.5;52.0;;
65079;Laerm;52655;52.218;5.964;2023-01-28T05:26:00;33.4;29.4;45.9;;
65079;Laerm;52655;52.218;5.964;2023-01-28T05:28:00;38.4;30.2;56.6;;
65079;Laerm;52655;52.218;5.964;2023-01-28T05:30:00;32.2;30.0;36.4;;
65079;Laerm;52655;52.218;5.964;2023-01-28T05:32:00;35.2;30.4;48.8;;
65079;Laerm;52655;52.218;5.964;2023-01-28T05:34:00;38.5;30.9;54.6;;
65079;Laerm;52655;52.218;5.964;2023-01-28T05:36:00;38.0;30.5;54.0;;
65079;Laerm;52655;52.218;5.964;2023-01-28T05:38:00;39.3;30.4;56.3;;
65079;Laerm;52655;52.218;5.964;2023-01-28T05:40:00;39.8;30.7;57.8;;
65079;Laerm;52655;52.218;5.964;2023-01-28T05:42:00;35.2;30.1;52.7;;
65079;Laerm;52655;52.218;5.964;2023-01-28T05:44:00;37.3;30.4;56.8;;
65079;Laerm;52655;52.218;5.964;2023-01-28T05:46:00;37.8;30.5;52.3;;
65079;Laerm;52655;52.218;5.964;2023-01-28T05:50:00;42.3;30.1;59.1;;
65079;Laerm;52655;52.218;5.964;2023-01-28T05:52:00;38.4;29.6;55.3;;
65079;Laerm;52655;52.218;5.964;2023-01-28T05:54:00;36.5;30.0;54.4;;
65079;Laerm;52655;52.218;5.964;2023-01-28T05:56:01;33.3;28.8;49.6;;
65079;Laerm;52655;52.218;5.964;2023-01-28T05:58:01;39.1;29.6;57.8;;
65079;Laerm;52655;52.218;5.964;2023-01-28T06:00:01;42.2;29.6;62.2;;
65079;Laerm;52655;52.218;5.964;2023-01-28T06:02:01;36.8;30.1;52.1;;
65079;Laerm;52655;52.218;5.964;2023-01-28T06:04:01;35.4;29.8;50.0;;
65079;Laerm;52655;52.218;5.964;2023-01-28T06:06:01;34.7;28.7;52.0;;
65079;Laerm;52655;52.218;5.964;2023-01-28T06:08:01;32.4;29.2;41.6;;
65079;Laerm;52655;52.218;5.964;2023-01-28T06:10:01;43.1;30.6;54.8;;
65079;Laerm;52655;52.218;5.964;2023-01-28T06:12:01;40.1;31.8;52.2;;
65079;Laerm;52655;52.218;5.964;2023-01-28T06:14:01;41.5;32.3;55.6;;
65079;Laerm;52655;52.218;5.964;2023-01-28T06:16:01;39.2;31.8;51.9;;
65079;Laerm;52655;52.218;5.964;2023-01-28T06:18:01;40.9;32.1;56.4;;
65079;Laerm;52655;52.218;5.964;2023-01-28T06:20:02;39.3;31.8;55.1;;
65079;Laerm;52655;52.218;5.964;2023-01-28T06:22:01;37.6;31.7;51.0;;
65079;Laerm;52655;52.218;5.964;2023-01-28T06:24:01;37.9;32.0;53.4;;
65079;Laerm;52655;52.218;5.964;2023-01-28T06:26:01;37.1;30.7;52.7;;
65079;Laerm;52655;52.218;5.964;2023-01-28T06:28:01;38.9;29.2;55.3;;
65079;Laerm;52655;52.218;5.964;2023-01-28T06:30:02;36.4;30.1;51.8;;
65079;Laerm;52655;52.218;5.964;2023-01-28T06:32:02;37.0;29.9;52.4;;
65079;Laerm;52655;52.218;5.964;2023-01-28T06:34:02;38.2;29.5;54.6;;
65079;Laerm;52655;52.218;5.964;2023-01-28T06:36:02;40.7;30.9;55.2;;
65079;Laerm;52655;52.218;5.964;2023-01-28T06:38:02;41.8;31.1;56.1;;
65079;Laerm;52655;52.218;5.964;2023-01-28T06:40:02;41.0;31.5;53.1;;
65079;Laerm;52655;52.218;5.964;2023-01-28T06:42:02;44.2;32.1;57.2;;
65079;Laerm;52655;52.218;5.964;2023-01-28T06:44:02;36.4;31.5;49.8;;
65079;Laerm;52655;52.218;5.964;2023-01-28T06:46:02;42.2;31.5;55.2;;
65079;Laerm;52655;52.218;5.964;2023-01-28T06:48:02;41.2;31.1;54.6;;
65079;Laerm;52655;52.218;5.964;2023-01-28T06:50:02;39.5;31.2;52.4;;
65079;Laerm;52655;52.218;5.964;2023-01-28T06:52:02;40.0;30.5;53.0;;
65079;Laerm;52655;52.218;5.964;2023-01-28T06:54:02;41.9;30.9;56.5;;
65079;Laerm;52655;52.218;5.964;2023-01-28T06:56:02;41.6;31.3;60.8;;
65079;Laerm;52655;52.218;5.964;2023-01-28T06:58:02;40.4;31.0;53.8;;
65079;Laerm;52655;52.218;5.964;2023-01-28T07:00:03;42.1;30.8;57.2;;
65079;Laerm;52655;52.218;5.964;2023-01-28T07:02:02;40.3;30.5;53.9;;
65079;Laerm;52655;52.218;5.964;2023-01-28T07:04:03;43.0;31.3;54.4;;
65079;Laerm;52655;52.218;5.964;2023-01-28T07:06:03;40.8;31.7;53.3;;
65079;Laerm;52655;52.218;5.964;2023-01-28T07:08:03;44.1;33.2;57.5;;
65079;Laerm;52655;52.218;5.964;2023-01-28T07:10:03;46.6;33.9;58.4;;
65079;Laerm;52655;52.218;5.964;2023-01-28T07:12:03;39.9;31.6;52.4;;
65079;Laerm;52655;52.218;5.964;2023-01-28T07:14:03;43.5;33.6;54.2;;
65079;Laerm;52655;52.218;5.964;2023-01-28T07:16:03;44.4;33.2;54.8;;
65079;Laerm;52655;52.218;5.964;2023-01-28T07:18:03;44.5;34.0;57.0;;
65079;Laerm;52655;52.218;5.964;2023-01-28T07:20:03;47.3;33.6;60.0;;
65079;Laerm;52655;52.218;5.964;2023-01-28T07:22:03;46.8;32.2;60.0;;
65079;Laerm;52655;52.218;5.964;2023-01-28T07:24:03;49.2;34.1;61.5;;
65079;Laerm;52655;52.218;5.964;2023-01-28T07:26:03;46.0;31.9;62.0;;
65079;Laerm;52655;52.218;5.964;2023-01-28T07:28:03;44.3;33.0;58.1;;
65079;Laerm;52655;52.218;5.964;2023-01-28T07:30:03;44.0;35.5;56.5;;
65079;Laerm;52655;52.218;5.964;2023-01-28T07:32:03;44.4;35.7;55.7;;
65079;Laerm;52655;52.218;5.964;2023-01-28T07:34:03;42.3;33.3;59.3;;
65079;Laerm;52655;52.218;5.964;2023-01-28T07:36:04;42.6;34.5;58.8;;
65079;Laerm;52655;52.218;5.964;2023-01-28T07:40:04;45.2;35.6;62.7;;
65079;Laerm;52655;52.218;5.964;2023-01-28T07:42:03;43.9;36.9;56.5;;
65079;Laerm;52655;52.218;5.964;2023-01-28T07:44:03;43.7;36.2;56.4;;
65079;Laerm;52655;52.218;5.964;2023-01-28T07:46:03;48.2;36.8;63.2;;
65079;Laerm;52655;52.218;5.964;2023-01-28T07:48:11;42.5;35.7;56.7;;
65079;Laerm;52655;52.218;5.964;2023-01-28T07:50:04;45.8;36.4;56.3;;
65079;Laerm;52655;52.218;5.964;2023-01-28T07:52:04;47.9;35.4;64.0;;
65079;Laerm;52655;52.218;5.964;2023-01-28T07:54:04;48.3;34.7;61.0;;
65079;Laerm;52655;52.218;5.964;2023-01-28T07:56:04;47.2;35.4;60.5;;
65079;Laerm;52655;52.218;5.964;2023-01-28T07:58:06;47.2;36.0;58.1;;
65079;Laerm;52655;52.218;5.964;2023-01-28T08:00:04;47.7;36.7;58.6;;
65079;Laerm;52655;52.218;5.964;2023-01-28T08:02:04;47.2;34.6;62.0;;
65079;Laerm;52655;52.218;5.964;2023-01-28T08:04:04;45.7;34.6;58.0;;
65079;Laerm;52655;52.218;5.964;2023-01-28T08:06:04;42.9;34.1;53.7;;
65079;Laerm;52655;52.218;5.964;2023-01-28T08:08:04;47.6;35.5;58.2;;
65079;Laerm;52655;52.218;5.964;2023-01-28T08:10:05;47.1;34.6;56.7;;
65079;Laerm;52655;52.218;5.964;2023-01-28T08:12:04;52.4;45.6;62.3;;
65079;Laerm;52655;52.218;5.964;2023-01-28T08:14:05;52.8;47.9;63.0;;
65079;Laerm;52655;52.218;5.964;2023-01-28T08:16:05;54.6;50.7;60.6;;
65079;Laerm;52655;52.218;5.964;2023-01-28T08:18:06;53.5;35.2;59.3;;
65079;Laerm;52655;52.218;5.964;2023-01-28T08:20:05;53.6;42.6;59.4;;
65079;Laerm;52655;52.218;5.964;2023-01-28T08:22:05;47.9;42.5;55.8;;
65079;Laerm;52655;52.218;5.964;2023-01-28T08:24:05;45.7;39.8;54.4;;
65079;Laerm;52655;52.218;5.964;2023-01-28T08:26:05;48.7;36.5;56.8;;
65079;Laerm;52655;52.218;5.964;2023-01-28T08:28:05;53.9;49.4;57.3;;
65079;Laerm;52655;52.218;5.964;2023-01-28T08:30:05;54.1;50.2;58.7;;
65079;Laerm;52655;52.218;5.964;2023-01-28T08:32:05;54.4;50.1;58.4;;
65079;Laerm;52655;52.218;5.964;2023-01-28T08:34:05;52.5;39.4;59.6;;
65079;Laerm;52655;52.218;5.964;2023-01-28T08:36:05;49.9;41.5;57.8;;
65079;Laerm;52655;52.218;5.964;2023-01-28T08:38:06;50.6;46.1;57.9;;
65079;Laerm;52655;52.218;5.964;2023-01-28T08:40:05;50.9;42.9;60.3;;
65079;Laerm;52655;52.218;5.964;2023-01-28T08:42:06;49.6;44.5;56.9;;
65079;Laerm;52655;52.218;5.964;2023-01-28T08:44:05;51.2;37.8;59.9;;
65079;Laerm;52655;52.218;5.964;2023-01-28T08:46:05;53.3;37.3;60.5;;
65079;Laerm;52655;52.218;5.964;2023-01-28T08:48:06;50.7;37.8;60.2;;
65079;Laerm;52655;52.218;5.964;2023-01-28T08:50:06;50.1;37.1;60.1;;
65079;Laerm;52655;52.218;5.964;2023-01-28T08:52:05;50.0;35.3;75.0;;
65079;Laerm;52655;52.218;5.964;2023-01-28T08:54:05;47.9;42.3;57.8;;
65079;Laerm;52655;52.218;5.964;2023-01-28T08:56:05;47.4;36.6;56.9;;
65079;Laerm;52655;52.218;5.964;2023-01-28T08:58:06;51.6;35.2;62.0;;
65079;Laerm;52655;52.218;5.964;2023-01-28T09:00:06;48.1;40.2;63.6;;
65079;Laerm;52655;52.218;5.964;2023-01-28T09:02:06;47.1;39.5;59.3;;
65079;Laerm;52655;52.218;5.964;2023-01-28T09:04:06;46.6;39.8;56.8;;
65079;Laerm;52655;52.218;5.964;2023-01-28T09:06:06;45.9;39.2;58.0;;
65079;Laerm;52655;52.218;5.964;2023-01-28T09:08:07;53.8;40.6;63.8;;
65079;Laerm;52655;52.218;5.964;2023-01-28T09:10:06;46.9;38.5;56.8;;
65079;Laerm;52655;52.218;5.964;2023-01-28T09:12:06;43.8;36.9;53.6;;
65079;Laerm;52655;52.218;5.964;2023-01-28T09:14:06;43.7;36.3;55.5;;
65079;Laerm;52655;52.218;5.964;2023-01-28T09:16:06;46.2;36.2;62.0;;
65079;Laerm;52655;52.218;5.964;2023-01-28T09:18:06;46.2;37.1;53.6;;
65079;Laerm;52655;52.218;5.964;2023-01-28T09:20:06;45.8;36.6;56.0;;
65079;Laerm;52655;52.218;5.964;2023-01-28T09:22:06;46.0;35.2;54.6;;
65079;Laerm;52655;52.218;5.964;2023-01-28T09:24:09;45.5;36.4;55.3;;
65079;Laerm;52655;52.218;5.964;2023-01-28T09:26:06;44.9;36.4;59.9;;
65079;Laerm;52655;52.218;5.964;2023-01-28T09:28:06;48.2;36.2;58.1;;
65079;Laerm;52655;52.218;5.964;2023-01-28T09:30:06;45.7;36.1;56.1;;
65079;Laerm;52655;52.218;5.964;2023-01-28T09:32:06;46.4;36.2;53.5;;
65079;Laerm;52655;52.218;5.964;2023-01-28T09:34:07;44.9;36.3;55.4;;
65079;Laerm;52655;52.218;5.964;2023-01-28T09:36:07;45.8;36.6;55.1;;
65079;Laerm;52655;52.218;5.964;2023-01-28T09:38:07;45.5;36.8;59.6;;
65079;Laerm;52655;52.218;5.964;2023-01-28T09:40:08;47.4;37.0;60.4;;
65079;Laerm;52655;52.218;5.964;2023-01-28T09:42:25;44.5;36.2;60.5;;
65079;Laerm;52655;52.218;5.964;2023-01-28T09:45:11;43.6;36.8;54.4;;
65079;Laerm;52655;52.218;5.964;2023-01-28T09:46:15;46.0;38.4;55.9;;
65079;Laerm;52655;52.218;5.964;2023-01-28T09:48:10;45.8;36.5;54.1;;
65079;Laerm;52655;52.218;5.964;2023-01-28T09:50:08;44.8;37.0;55.9;;
65079;Laerm;52655;52.218;5.964;2023-01-28T09:52:07;48.7;35.8;63.0;;
65079;Laerm;52655;52.218;5.964;2023-01-28T09:54:23;47.7;34.9;57.2;;
65079;Laerm;52655;52.218;5.964;2023-01-28T09:56:10;44.5;36.1;59.8;;
65079;Laerm;52655;52.218;5.964;2023-01-28T09:58:11;43.6;36.2;54.1;;
65079;Laerm;52655;52.218;5.964;2023-01-28T10:00:11;44.7;36.4;55.7;;
65079;Laerm;52655;52.218;5.964;2023-01-28T10:02:11;45.9;35.8;56.5;;
65079;Laerm;52655;52.218;5.964;2023-01-28T10:05:02;45.1;37.2;58.9;;
65079;Laerm;52655;52.218;5.964;2023-01-28T10:06:50;46.0;36.4;55.0;;
65079;Laerm;52655;52.218;5.964;2023-01-28T10:09:43;46.2;39.2;54.3;;
65079;Laerm;52655;52.218;5.964;2023-01-28T10:11:25;45.5;37.6;53.6;;
65079;Laerm;52655;52.218;5.964;2023-01-28T10:13:30;47.4;37.6;73.9;;
65079;Laerm;52655;52.218;5.964;2023-01-28T10:16:16;47.1;37.7;61.6;;
65079;Laerm;52655;52.218;5.964;2023-01-28T10:17:31;45.9;37.1;57.7;;
65079;Laerm;52655;52.218;5.964;2023-01-28T10:18:14;46.0;36.8;56.9;;
65079;Laerm;52655;52.218;5.964;2023-01-28T10:20:13;45.9;36.8;57.7;;
65079;Laerm;52655;52.218;5.964;2023-01-28T10:22:12;49.6;37.3;60.3;;
65079;Laerm;52655;52.218;5.964;2023-01-28T10:24:09;47.1;39.2;53.6;;
65079;Laerm;52655;52.218;5.964;2023-01-28T10:26:14;47.4;37.9;55.7;;
65079;Laerm;52655;52.218;5.964;2023-01-28T10:28:19;44.2;36.6;51.8;;
65079;Laerm;52655;52.218;5.964;2023-01-28T10:30:18;46.0;37.0;52.8;;
65079;Laerm;52655;52.218;5.964;2023-01-28T10:32:16;44.7;36.6;61.0;;
65079;Laerm;52655;52.218;5.964;2023-01-28T10:34:08;45.3;35.5;66.9;;
65079;Laerm;52655;52.218;5.964;2023-01-28T10:36:08;45.7;36.2;54.5;;
65079;Laerm;52655;52.218;5.964;2023-01-28T10:38:11;54.4;38.0;65.2;;
65079;Laerm;52655;52.218;5.964;2023-01-28T10:40:12;50.6;36.6;62.8;;
65079;Laerm;52655;52.218;5.964;2023-01-28T10:42:12;46.8;37.5;61.1;;
65079;Laerm;52655;52.218;5.964;2023-01-28T10:44:09;42.7;34.9;51.7;;
65079;Laerm;52655;52.218;5.964;2023-01-28T10:46:10;45.6;36.2;65.0;;
65079;Laerm;52655;52.218;5.964;2023-01-28T10:48:19;44.5;37.6;52.3;;
65079;Laerm;52655;52.218;5.964;2023-01-28T10:50:16;44.4;37.0;55.5;;
65079;Laerm;52655;52.218;5.964;2023-01-28T10:52:09;45.0;35.3;57.1;;
65079;Laerm;52655;52.218;5.964;2023-01-28T10:54:19;46.7;36.0;65.9;;
65079;Laerm;52655;52.218;5.964;2023-01-28T10:56:09;46.5;35.2;62.0;;
65079;Laerm;52655;52.218;5.964;2023-01-28T10:58:18;44.8;36.8;60.1;;
65079;Laerm;52655;52.218;5.964;2023-01-28T11:00:11;47.2;36.6;65.0;;
65079;Laerm;52655;52.218;5.964;2023-01-28T11:02:23;46.4;37.1;54.4;;
65079;Laerm;52655;52.218;5.964;2023-01-28T11:04:17;43.9;33.9;52.5;;
65079;Laerm;52655;52.218;5.964;2023-01-28T11:06:17;45.2;34.4;54.8;;
65079;Laerm;52655;52.218;5.964;2023-01-28T11:08:14;45.9;33.7;55.0;;
65079;Laerm;52655;52.218;5.964;2023-01-28T11:10:25;45.9;36.0;55.3;;
65079;Laerm;52655;52.218;5.964;2023-01-28T11:12:10;50.5;36.2;69.5;;
65079;Laerm;52655;52.218;5.964;2023-01-28T11:14:17;45.7;35.1;64.6;;
65079;Laerm;52655;52.218;5.964;2023-01-28T11:16:12;45.8;34.6;59.3;;
65079;Laerm;52655;52.218;5.964;2023-01-28T11:18:22;46.2;35.4;58.5;;
65079;Laerm;52655;52.218;5.964;2023-01-28T11:20:18;44.0;34.6;55.3;;
65079;Laerm;52655;52.218;5.964;2023-01-28T11:22:13;44.8;34.6;54.6;;
65079;Laerm;52655;52.218;5.964;2023-01-28T11:26:18;48.1;34.9;66.5;;
65079;Laerm;52655;52.218;5.964;2023-01-28T11:28:22;44.7;36.2;54.5;;
65079;Laerm;52655;52.218;5.964;2023-01-28T11:31:02;44.5;36.5;54.7;;
65079;Laerm;52655;52.218;5.964;2023-01-28T11:32:33;47.2;36.0;57.3;;
65079;Laerm;52655;52.218;5.964;2023-01-28T11:34:14;47.1;33.6;65.0;;
65079;Laerm;52655;52.218;5.964;2023-01-28T11:36:13;46.9;34.1;56.3;;
65079;Laerm;52655;52.218;5.964;2023-01-28T11:38:21;43.2;32.9;56.7;;
65079;Laerm;52655;52.218;5.964;2023-01-28T11:40:16;45.9;35.3;57.9;;
65079;Laerm;52655;52.218;5.964;2023-01-28T11:42:12;44.7;37.9;54.2;;
65079;Laerm;52655;52.218;5.964;2023-01-28T11:44:20;44.5;36.2;55.4;;
65079;Laerm;52655;52.218;5.964;2023-01-28T11:46:38;42.6;34.4;50.8;;
65079;Laerm;52655;52.218;5.964;2023-01-28T11:49:04;46.2;37.4;59.3;;
65079;Laerm;52655;52.218;5.964;2023-01-28T11:51:06;46.2;36.1;61.8;;